sensor_id;sensor_type;location;lat;lon;timestamp;pressure;altitude;pressure_sealevel;temperature;humidity
52535;BME280;38443;53.164;5.802;2023-04-25T00:02:08;101100.97;;;5.25;100.00
52535;BME280;38443;53.164;5.802;2023-04-25T00:04:33;101096.53;;;5.28;100.00
52535;BME280;38443;53.164;5.802;2023-04-25T00:06:59;101093.88;;;5.27;100.00
52535;BME280;38443;53.164;5.802;2023-04-25T00:09:27;101102.72;;;5.30;100.00
52535;BME280;38443;53.164;5.802;2023-04-25T00:11:52;101094.75;;;5.29;100.00
52535;BME280;38443;53.164;5.802;2023-04-25T00:14:18;101098.31;;;5.25;100.00
52535;BME280;38443;53.164;5.802;2023-04-25T00:16:43;101101.84;;;5.27;100.00
52535;BME280;38443;53.164;5.802;2023-04-25T00:19:08;101104.53;;;5.25;100.00
52535;BME280;38443;53.164;5.802;2023-04-25T00:21:34;101097.41;;;5.29;100.00
52535;BME280;38443;53.164;5.802;2023-04-25T00:24:00;101099.22;;;5.24;100.00
52535;BME280;38443;53.164;5.802;2023-04-25T00:26:25;101109.81;;;5.27;100.00
52535;BME280;38443;53.164;5.802;2023-04-25T00:28:51;101094.78;;;5.23;100.00
52535;BME280;38443;53.164;5.802;2023-04-25T00:31:16;101111.56;;;5.23;100.00
52535;BME280;38443;53.164;5.802;2023-04-25T00:33:41;101098.34;;;5.17;100.00
52535;BME280;38443;53.164;5.802;2023-04-25T00:36:07;101108.97;;;5.14;100.00
52535;BME280;38443;53.164;5.802;2023-04-25T00:38:32;101098.34;;;5.12;100.00
52535;BME280;38443;53.164;5.802;2023-04-25T00:40:57;101106.31;;;5.14;100.00
52535;BME280;38443;53.164;5.802;2023-04-25T00:43:26;101109.88;;;5.10;100.00
52535;BME280;38443;53.164;5.802;2023-04-25T00:45:52;101111.63;;;5.14;100.00
52535;BME280;38443;53.164;5.802;2023-04-25T00:48:17;101111.66;;;5.09;100.00
52535;BME280;38443;53.164;5.802;2023-04-25T00:50:51;101110.75;;;5.13;100.00
52535;BME280;38443;53.164;5.802;2023-04-25T00:53:17;101106.31;;;5.14;100.00
52535;BME280;38443;53.164;5.802;2023-04-25T00:55:42;101108.09;;;5.12;100.00
52535;BME280;38443;53.164;5.802;2023-04-25T00:58:07;101102.75;;;5.15;100.00
52535;BME280;38443;53.164;5.802;2023-04-25T01:00:32;101110.75;;;5.10;100.00
52535;BME280;38443;53.164;5.802;2023-04-25T01:02:58;101117.81;;;5.14;100.00
52535;BME280;38443;53.164;5.802;2023-04-25T01:05:23;101106.31;;;5.11;100.00
52535;BME280;38443;53.164;5.802;2023-04-25T01:07:49;101105.44;;;5.13;100.00
52535;BME280;38443;53.164;5.802;2023-04-25T01:10:14;101124.00;;;5.10;100.00
52535;BME280;38443;53.164;5.802;2023-04-25T01:12:40;101127.56;;;5.08;100.00
52535;BME280;38443;53.164;5.802;2023-04-25T01:15:06;101119.63;;;5.02;100.00
52535;BME280;38443;53.164;5.802;2023-04-25T01:17:31;101134.63;;;5.03;100.00
52535;BME280;38443;53.164;5.802;2023-04-25T01:19:58;101134.63;;;5.01;100.00
52535;BME280;38443;53.164;5.802;2023-04-25T01:22:23;101132.88;;;4.92;100.00
52535;BME280;38443;53.164;5.802;2023-04-25T01:24:49;101134.66;;;4.89;100.00
52535;BME280;38443;53.164;5.802;2023-04-25T01:27:14;101143.50;;;4.80;100.00
52535;BME280;38443;53.164;5.802;2023-04-25T01:29:40;101149.69;;;4.73;100.00
52535;BME280;38443;53.164;5.802;2023-04-25T01:32:06;101141.75;;;4.64;100.00
52535;BME280;38443;53.164;5.802;2023-04-25T01:34:32;101149.69;;;4.56;100.00
52535;BME280;38443;53.164;5.802;2023-04-25T01:36:58;101154.13;;;4.48;100.00
52535;BME280;38443;53.164;5.802;2023-04-25T01:39:24;101156.78;;;4.48;100.00
52535;BME280;38443;53.164;5.802;2023-04-25T01:41:49;101159.41;;;4.42;100.00
52535;BME280;38443;53.164;5.802;2023-04-25T01:44:15;101162.97;;;4.39;100.00
52535;BME280;38443;53.164;5.802;2023-04-25T01:46:40;101161.19;;;4.38;100.00
52535;BME280;38443;53.164;5.802;2023-04-25T01:49:06;101170.00;;;4.40;100.00
52535;BME280;38443;53.164;5.802;2023-04-25T01:51:31;101162.97;;;4.39;100.00
52535;BME280;38443;53.164;5.802;2023-04-25T01:53:57;101170.03;;;4.43;100.00
52535;BME280;38443;53.164;5.802;2023-04-25T01:56:23;101163.84;;;4.41;100.00
52535;BME280;38443;53.164;5.802;2023-04-25T01:58:48;101174.41;;;4.43;100.00
52535;BME280;38443;53.164;5.802;2023-04-25T02:01:13;101173.53;;;4.40;100.00
52535;BME280;38443;53.164;5.802;2023-04-25T02:03:39;101165.59;;;4.39;100.00
52535;BME280;38443;53.164;5.802;2023-04-25T02:06:04;101161.16;;;4.35;100.00
52535;BME280;38443;53.164;5.802;2023-04-25T02:08:30;101175.31;;;4.34;100.00
52535;BME280;38443;53.164;5.802;2023-04-25T02:10:56;101164.72;;;4.34;100.00
52535;BME280;38443;53.164;5.802;2023-04-25T02:13:21;101157.63;;;4.30;100.00
52535;BME280;38443;53.164;5.802;2023-04-25T02:15:47;101162.06;;;4.35;100.00
52535;BME280;38443;53.164;5.802;2023-04-25T02:18:12;101162.03;;;4.32;100.00
52535;BME280;38443;53.164;5.802;2023-04-25T02:20:37;101166.47;;;4.33;100.00
52535;BME280;38443;53.164;5.802;2023-04-25T02:23:03;101170.00;;;4.28;100.00
52535;BME280;38443;53.164;5.802;2023-04-25T02:25:28;101167.31;;;4.25;100.00
52535;BME280;38443;53.164;5.802;2023-04-25T02:27:53;101163.81;;;4.21;100.00
52535;BME280;38443;53.164;5.802;2023-04-25T02:30:19;101177.94;;;4.20;100.00
52535;BME280;38443;53.164;5.802;2023-04-25T02:32:45;101177.91;;;4.14;100.00
52535;BME280;38443;53.164;5.802;2023-04-25T02:35:10;101185.84;;;4.14;100.00
52535;BME280;38443;53.164;5.802;2023-04-25T02:37:38;101185.84;;;4.08;100.00
52535;BME280;38443;53.164;5.802;2023-04-25T02:40:05;101185.81;;;4.05;100.00
52535;BME280;38443;53.164;5.802;2023-04-25T02:42:30;101183.19;;;4.03;100.00
52535;BME280;38443;53.164;5.802;2023-04-25T02:44:56;101183.19;;;3.97;100.00
52535;BME280;38443;53.164;5.802;2023-04-25T02:47:21;101181.38;;;3.96;100.00
52535;BME280;38443;53.164;5.802;2023-04-25T02:49:46;101178.72;;;3.94;100.00
52535;BME280;38443;53.164;5.802;2023-04-25T02:52:12;101181.38;;;3.96;100.00
52535;BME280;38443;53.164;5.802;2023-04-25T02:54:38;101184.94;;;3.98;100.00
52535;BME280;38443;53.164;5.802;2023-04-25T02:57:03;101178.78;;;4.05;100.00
52535;BME280;38443;53.164;5.802;2023-04-25T02:59:28;101183.19;;;4.08;100.00
52535;BME280;38443;53.164;5.802;2023-04-25T03:01:54;101182.31;;;4.15;100.00
52535;BME280;38443;53.164;5.802;2023-04-25T03:04:19;101177.03;;;4.16;100.00
52535;BME280;38443;53.164;5.802;2023-04-25T03:06:44;101177.03;;;4.19;100.00
52535;BME280;38443;53.164;5.802;2023-04-25T03:09:10;101180.56;;;4.18;100.00
52535;BME280;38443;53.164;5.802;2023-04-25T03:11:36;101191.19;;;4.23;100.00
52535;BME280;38443;53.164;5.802;2023-04-25T03:14:01;101189.41;;;4.24;100.00
52535;BME280;38443;53.164;5.802;2023-04-25T03:16:27;101192.94;;;4.19;100.00
52535;BME280;38443;53.164;5.802;2023-04-25T03:18:52;101195.59;;;4.21;100.00
52535;BME280;38443;53.164;5.802;2023-04-25T03:21:17;101195.56;;;4.16;100.00
52535;BME280;38443;53.164;5.802;2023-04-25T03:23:42;101199.13;;;4.17;100.00
52535;BME280;38443;53.164;5.802;2023-04-25T03:26:08;101197.34;;;4.17;100.00
52535;BME280;38443;53.164;5.802;2023-04-25T03:28:33;101194.72;;;4.27;100.00
52535;BME280;38443;53.164;5.802;2023-04-25T03:30:58;101194.72;;;4.27;100.00
52535;BME280;38443;53.164;5.802;2023-04-25T03:33:24;101194.72;;;4.27;100.00
52535;BME280;38443;53.164;5.802;2023-04-25T03:35:49;101195.59;;;4.24;100.00
52535;BME280;38443;53.164;5.802;2023-04-25T03:38:15;101198.25;;;4.26;100.00
52535;BME280;38443;53.164;5.802;2023-04-25T03:40:40;101197.38;;;4.24;100.00
52535;BME280;38443;53.164;5.802;2023-04-25T03:43:05;101190.28;;;4.29;100.00
52535;BME280;38443;53.164;5.802;2023-04-25T03:45:31;101191.19;;;4.28;100.00
52535;BME280;38443;53.164;5.802;2023-04-25T03:47:56;101185.88;;;4.31;100.00
52535;BME280;38443;53.164;5.802;2023-04-25T03:50:21;101191.19;;;4.28;100.00
52535;BME280;38443;53.164;5.802;2023-04-25T03:52:47;101201.78;;;4.28;100.00
52535;BME280;38443;53.164;5.802;2023-04-25T03:55:12;101200.03;;;4.24;100.00
52535;BME280;38443;53.164;5.802;2023-04-25T03:57:37;101203.53;;;4.19;100.00
52535;BME280;38443;53.164;5.802;2023-04-25T04:00:03;101207.91;;;4.13;100.00
52535;BME280;38443;53.164;5.802;2023-04-25T04:02:29;101212.34;;;4.09;100.00
52535;BME280;38443;53.164;5.802;2023-04-25T04:04:54;101207.91;;;4.07;100.00
52535;BME280;38443;53.164;5.802;2023-04-25T04:07:21;101216.75;;;4.07;100.00
52535;BME280;38443;53.164;5.802;2023-04-25T04:09:46;101219.38;;;4.04;100.00
52535;BME280;38443;53.164;5.802;2023-04-25T04:12:12;101229.09;;;4.07;100.00
52535;BME280;38443;53.164;5.802;2023-04-25T04:14:37;101222.00;;;4.03;100.00
52535;BME280;38443;53.164;5.802;2023-04-25T04:17:02;101221.16;;;4.05;100.00
52535;BME280;38443;53.164;5.802;2023-04-25T04:19:28;101225.56;;;4.06;100.00
52535;BME280;38443;53.164;5.802;2023-04-25T04:21:53;101238.81;;;4.12;100.00
52535;BME280;38443;53.164;5.802;2023-04-25T04:24:19;101238.84;;;4.14;100.00
52535;BME280;38443;53.164;5.802;2023-04-25T04:26:44;101236.22;;;4.17;100.00
52535;BME280;38443;53.164;5.802;2023-04-25T04:29:10;101239.72;;;4.16;100.00
52535;BME280;38443;53.164;5.802;2023-04-25T04:31:35;101242.38;;;4.20;100.00
52535;BME280;38443;53.164;5.802;2023-04-25T04:34:01;101237.97;;;4.19;100.00
52535;BME280;38443;53.164;5.802;2023-04-25T04:36:27;101241.50;;;4.20;100.00
52535;BME280;38443;53.164;5.802;2023-04-25T04:38:52;101244.16;;;4.17;100.00
52535;BME280;38443;53.164;5.802;2023-04-25T04:41:18;101255.63;;;4.20;100.00
52535;BME280;38443;53.164;5.802;2023-04-25T04:43:44;101265.34;;;4.20;100.00
52535;BME280;38443;53.164;5.802;2023-04-25T04:46:10;101254.72;;;4.14;100.00
52535;BME280;38443;53.164;5.802;2023-04-25T04:48:35;101255.63;;;4.16;100.00
52535;BME280;38443;53.164;5.802;2023-04-25T04:51:00;101262.66;;;4.12;100.00
52535;BME280;38443;53.164;5.802;2023-04-25T04:53:26;101270.63;;;4.12;100.00
52535;BME280;38443;53.164;5.802;2023-04-25T04:55:52;101274.16;;;4.10;100.00
52535;BME280;38443;53.164;5.802;2023-04-25T04:58:17;101269.72;;;4.10;100.00
52535;BME280;38443;53.164;5.802;2023-04-25T05:00:42;101270.59;;;4.08;100.00
52535;BME280;38443;53.164;5.802;2023-04-25T05:03:08;101279.47;;;4.11;100.00
52535;BME280;38443;53.164;5.802;2023-04-25T05:05:33;101278.56;;;4.09;100.00
52535;BME280;38443;53.164;5.802;2023-04-25T05:07:59;101271.50;;;4.13;100.00
52535;BME280;38443;53.164;5.802;2023-04-25T05:10:25;101279.47;;;4.11;100.00
52535;BME280;38443;53.164;5.802;2023-04-25T05:12:50;101284.72;;;4.13;100.00
52535;BME280;38443;53.164;5.802;2023-04-25T05:15:16;101279.47;;;4.11;100.00
52535;BME280;38443;53.164;5.802;2023-04-25T05:17:41;101282.97;;;4.12;100.00
52535;BME280;38443;53.164;5.802;2023-04-25T05:20:07;101285.59;;;4.09;100.00
52535;BME280;38443;53.164;5.802;2023-04-25T05:22:33;101282.09;;;4.10;100.00
52535;BME280;38443;53.164;5.802;2023-04-25T05:24:59;101290.91;;;4.07;100.00
52535;BME280;38443;53.164;5.802;2023-04-25T05:27:24;101296.25;;;4.13;100.00
52535;BME280;38443;53.164;5.802;2023-04-25T05:29:49;101298.91;;;4.19;100.00
52535;BME280;38443;53.164;5.802;2023-04-25T05:32:14;101291.88;;;4.28;100.00
52535;BME280;38443;53.164;5.802;2023-04-25T05:34:40;101293.66;;;4.32;100.00
52535;BME280;38443;53.164;5.802;2023-04-25T05:37:07;101287.50;;;4.40;100.00
52535;BME280;38443;53.164;5.802;2023-04-25T05:39:32;101299.00;;;4.44;100.00
52535;BME280;38443;53.164;5.802;2023-04-25T05:41:57;101307.84;;;4.48;100.00
52535;BME280;38443;53.164;5.802;2023-04-25T05:44:22;101311.38;;;4.48;100.00
52535;BME280;38443;53.164;5.802;2023-04-25T05:46:48;101312.28;;;4.53;100.00
52535;BME280;38443;53.164;5.802;2023-04-25T05:49:13;101324.69;;;4.57;100.00
52535;BME280;38443;53.164;5.802;2023-04-25T05:51:38;101324.69;;;4.64;100.00
52535;BME280;38443;53.164;5.802;2023-04-25T05:54:04;101323.81;;;4.62;100.00
52535;BME280;38443;53.164;5.802;2023-04-25T05:56:29;101325.56;;;4.63;100.00
52535;BME280;38443;53.164;5.802;2023-04-25T05:58:54;101334.38;;;4.49;100.00
52535;BME280;38443;53.164;5.802;2023-04-25T06:01:22;101339.63;;;4.40;100.00
52535;BME280;38443;53.164;5.802;2023-04-25T06:03:47;101344.88;;;4.29;100.00
52535;BME280;38443;53.164;5.802;2023-04-25T06:06:13;101343.06;;;4.17;100.00
52535;BME280;38443;53.164;5.802;2023-04-25T06:08:38;101347.41;;;4.11;100.00
52535;BME280;38443;53.164;5.802;2023-04-25T06:11:03;101349.19;;;4.06;100.00
52535;BME280;38443;53.164;5.802;2023-04-25T06:13:28;101348.28;;;4.07;100.00
52535;BME280;38443;53.164;5.802;2023-04-25T06:15:54;101350.97;;;4.13;100.00
52535;BME280;38443;53.164;5.802;2023-04-25T06:18:19;101341.34;;;4.27;100.00
52535;BME280;38443;53.164;5.802;2023-04-25T06:20:44;101341.44;;;4.47;100.00
52535;BME280;38443;53.164;5.802;2023-04-25T06:23:10;101338.84;;;4.70;100.00
52535;BME280;38443;53.164;5.802;2023-04-25T06:25:35;101349.47;;;4.89;100.00
52535;BME280;38443;53.164;5.802;2023-04-25T06:28:00;101345.13;;;5.08;100.00
52535;BME280;38443;53.164;5.802;2023-04-25T06:30:26;101346.91;;;5.36;100.00
52535;BME280;38443;53.164;5.802;2023-04-25T06:32:52;101338.88;;;5.87;100.00
52535;BME280;38443;53.164;5.802;2023-04-25T06:35:18;101345.06;;;6.14;100.00
52535;BME280;38443;53.164;5.802;2023-04-25T06:37:43;101344.84;;;6.68;100.00
52535;BME280;38443;53.164;5.802;2023-04-25T06:40:09;101339.00;;;7.45;100.00
52535;BME280;38443;53.164;5.802;2023-04-25T06:42:35;101349.03;;;7.09;100.00
52535;BME280;38443;53.164;5.802;2023-04-25T06:45:00;101363.59;;;6.31;100.00
52535;BME280;38443;53.164;5.802;2023-04-25T06:47:26;101378.75;;;5.70;100.00
52535;BME280;38443;53.164;5.802;2023-04-25T06:49:51;101389.31;;;4.99;100.00
52535;BME280;38443;53.164;5.802;2023-04-25T06:52:16;101405.03;;;4.49;100.00
52535;BME280;38443;53.164;5.802;2023-04-25T06:54:43;101400.56;;;4.35;100.00
52535;BME280;38443;53.164;5.802;2023-04-25T06:57:08;101404.06;;;4.33;100.00
52535;BME280;38443;53.164;5.802;2023-04-25T06:59:33;101407.69;;;4.46;100.00
52535;BME280;38443;53.164;5.802;2023-04-25T07:01:59;101408.63;;;4.60;100.00
52535;BME280;38443;53.164;5.802;2023-04-25T07:04:24;101401.66;;;4.93;100.00
52535;BME280;38443;53.164;5.802;2023-04-25T07:06:50;101402.59;;;5.15;100.00
52535;BME280;38443;53.164;5.802;2023-04-25T07:09:15;101392.91;;;5.34;100.00
52535;BME280;38443;53.164;5.802;2023-04-25T07:11:41;101394.69;;;5.33;100.00
52535;BME280;38443;53.164;5.802;2023-04-25T07:14:06;101394.69;;;5.38;100.00
52535;BME280;38443;53.164;5.802;2023-04-25T07:16:31;101403.50;;;5.26;100.00
52535;BME280;38443;53.164;5.802;2023-04-25T07:18:57;101395.56;;;5.28;100.00
52535;BME280;38443;53.164;5.802;2023-04-25T07:21:22;101396.41;;;5.19;100.00
52535;BME280;38443;53.164;5.802;2023-04-25T07:23:47;101396.44;;;5.16;100.00
52535;BME280;38443;53.164;5.802;2023-04-25T07:26:12;101406.13;;;5.11;100.00
52535;BME280;38443;53.164;5.802;2023-04-25T07:28:38;101400.00;;;5.96;100.00
52535;BME280;38443;53.164;5.802;2023-04-25T07:31:03;101396.97;;;7.04;100.00
52535;BME280;38443;53.164;5.802;2023-04-25T07:33:29;101387.28;;;8.05;100.00
52535;BME280;38443;53.164;5.802;2023-04-25T07:35:54;101385.69;;;8.69;100.00
52535;BME280;38443;53.164;5.802;2023-04-25T07:38:20;101382.44;;;9.12;100.00
52535;BME280;38443;53.164;5.802;2023-04-25T07:40:46;101377.69;;;9.31;100.00
52535;BME280;38443;53.164;5.802;2023-04-25T07:43:12;101388.38;;;8.69;100.00
52535;BME280;38443;53.164;5.802;2023-04-25T07:45:39;101402.59;;;7.83;100.00
52535;BME280;38443;53.164;5.802;2023-04-25T07:48:05;101402.00;;;7.47;100.00
52535;BME280;38443;53.164;5.802;2023-04-25T07:50:30;101407.31;;;7.52;100.00
52535;BME280;38443;53.164;5.802;2023-04-25T07:52:55;101392.72;;;7.94;100.00
52535;BME280;38443;53.164;5.802;2023-04-25T07:55:21;101407.38;;;8.37;100.00
52535;BME280;38443;53.164;5.802;2023-04-25T07:57:46;101412.31;;;8.74;100.00
52535;BME280;38443;53.164;5.802;2023-04-25T08:00:12;101411.25;;;8.90;100.00
52535;BME280;38443;53.164;5.802;2023-04-25T08:02:37;101411.44;;;8.75;100.00
52535;BME280;38443;53.164;5.802;2023-04-25T08:05:03;101415.47;;;8.29;100.00
52535;BME280;38443;53.164;5.802;2023-04-25T08:07:28;101429.31;;;7.75;100.00
52535;BME280;38443;53.164;5.802;2023-04-25T08:09:54;101440.09;;;7.58;100.00
52535;BME280;38443;53.164;5.802;2023-04-25T08:12:19;101433.75;;;7.73;100.00
52535;BME280;38443;53.164;5.802;2023-04-25T08:14:45;101420.38;;;8.69;100.00
52535;BME280;38443;53.164;5.802;2023-04-25T08:17:10;101422.00;;;8.84;100.00
52535;BME280;38443;53.164;5.802;2023-04-25T08:19:36;101424.84;;;8.69;100.00
52535;BME280;38443;53.164;5.802;2023-04-25T08:22:01;101431.59;;;8.18;100.00
52535;BME280;38443;53.164;5.802;2023-04-25T08:24:26;101440.88;;;7.73;100.00
52535;BME280;38443;53.164;5.802;2023-04-25T08:26:51;101443.69;;;7.54;100.00
52535;BME280;38443;53.164;5.802;2023-04-25T08:29:17;101436.56;;;7.55;100.00
52535;BME280;38443;53.164;5.802;2023-04-25T08:31:42;101442.78;;;7.55;100.00
52535;BME280;38443;53.164;5.802;2023-04-25T08:34:07;101455.31;;;7.39;100.00
52535;BME280;38443;53.164;5.802;2023-04-25T08:36:33;101456.75;;;7.87;100.00
52535;BME280;38443;53.164;5.802;2023-04-25T08:38:58;101455.84;;;7.91;100.00
52535;BME280;38443;53.164;5.802;2023-04-25T08:41:23;101464.09;;;7.55;100.00
52535;BME280;38443;53.164;5.802;2023-04-25T08:43:49;101465.13;;;7.36;100.00
52535;BME280;38443;53.164;5.802;2023-04-25T08:46:17;101468.84;;;7.06;100.00
52535;BME280;38443;53.164;5.802;2023-04-25T08:48:45;101469.78;;;6.94;100.00
52535;BME280;38443;53.164;5.802;2023-04-25T08:51:17;101476.44;;;7.67;100.00
52535;BME280;38443;53.164;5.802;2023-04-25T08:53:49;101474.06;;;8.42;100.00
52535;BME280;38443;53.164;5.802;2023-04-25T08:56:16;101473.06;;;8.52;100.00
52535;BME280;38443;53.164;5.802;2023-04-25T08:58:43;101474.44;;;8.88;100.00
52535;BME280;38443;53.164;5.802;2023-04-25T09:01:11;101462.78;;;8.94;100.00
52535;BME280;38443;53.164;5.802;2023-04-25T09:03:36;101479.63;;;9.01;100.00
52535;BME280;38443;53.164;5.802;2023-04-25T09:06:02;101479.44;;;9.14;100.00
52535;BME280;38443;53.164;5.802;2023-04-25T09:08:28;101493.41;;;9.35;100.00
52535;BME280;38443;53.164;5.802;2023-04-25T09:10:53;101483.53;;;9.40;100.00
52535;BME280;38443;53.164;5.802;2023-04-25T09:13:26;101494.88;;;8.89;100.00
52535;BME280;38443;53.164;5.802;2023-04-25T09:15:56;101518.88;;;7.93;100.00
52535;BME280;38443;53.164;5.802;2023-04-25T09:18:27;101516.69;;;7.18;100.00
52535;BME280;38443;53.164;5.802;2023-04-25T09:20:53;101536.34;;;6.80;100.00
52535;BME280;38443;53.164;5.802;2023-04-25T09:23:20;101539.97;;;6.44;100.00
52535;BME280;38443;53.164;5.802;2023-04-25T09:25:47;101543.50;;;6.33;100.00
52535;BME280;38443;53.164;5.802;2023-04-25T09:28:13;101543.50;;;6.44;100.00
52535;BME280;38443;53.164;5.802;2023-04-25T09:30:38;101544.34;;;6.74;100.00
52535;BME280;38443;53.164;5.802;2023-04-25T09:33:11;101543.41;;;6.90;100.00
52535;BME280;38443;53.164;5.802;2023-04-25T09:35:37;101549.56;;;7.05;100.00
52535;BME280;38443;53.164;5.802;2023-04-25T09:38:14;101550.44;;;7.10;100.00
52535;BME280;38443;53.164;5.802;2023-04-25T09:40:43;101556.63;;;7.16;100.00
52535;BME280;38443;53.164;5.802;2023-04-25T09:43:10;101547.78;;;7.08;100.00
52535;BME280;38443;53.164;5.802;2023-04-25T09:45:43;101559.28;;;7.16;100.00
52535;BME280;38443;53.164;5.802;2023-04-25T09:48:19;101570.78;;;7.34;100.00
52535;BME280;38443;53.164;5.802;2023-04-25T09:51:06;101561.75;;;7.61;100.00
52535;BME280;38443;53.164;5.802;2023-04-25T09:53:35;101577.56;;;7.90;100.00
52535;BME280;38443;53.164;5.802;2023-04-25T09:56:04;101573.84;;;8.11;100.00
52535;BME280;38443;53.164;5.802;2023-04-25T09:58:30;101571.09;;;8.24;100.00
52535;BME280;38443;53.164;5.802;2023-04-25T10:01:02;101556.94;;;8.15;100.00
52535;BME280;38443;53.164;5.802;2023-04-25T10:03:32;101566.81;;;8.01;100.00
52535;BME280;38443;53.164;5.802;2023-04-25T10:06:02;101561.41;;;8.13;100.00
52535;BME280;38443;53.164;5.802;2023-04-25T10:08:34;101568.56;;;8.10;100.00
52535;BME280;38443;53.164;5.802;2023-04-25T10:11:01;101577.44;;;8.12;100.00
52535;BME280;38443;53.164;5.802;2023-04-25T10:13:29;101573.88;;;8.10;100.00
52535;BME280;38443;53.164;5.802;2023-04-25T10:15:57;101574.69;;;8.21;100.00
52535;BME280;38443;53.164;5.802;2023-04-25T10:18:23;101572.09;;;8.12;100.00
52535;BME280;38443;53.164;5.802;2023-04-25T10:20:49;101574.94;;;7.84;100.00
52535;BME280;38443;53.164;5.802;2023-04-25T10:23:15;101581.13;;;7.92;100.00
52535;BME280;38443;53.164;5.802;2023-04-25T10:25:42;101574.66;;;8.24;100.00
52535;BME280;38443;53.164;5.802;2023-04-25T10:28:08;101584.28;;;8.44;100.00
52535;BME280;38443;53.164;5.802;2023-04-25T10:30:33;101574.31;;;8.66;78.85
52535;BME280;38443;53.164;5.802;2023-04-25T10:32:59;101575.22;;;8.65;89.58
52535;BME280;38443;53.164;5.802;2023-04-25T10:35:25;101580.69;;;8.49;100.00
52535;BME280;38443;53.164;5.802;2023-04-25T10:38:05;101615.59;;;8.17;100.00
52535;BME280;38443;53.164;5.802;2023-04-25T10:40:33;101642.75;;;6.49;100.00
52535;BME280;38443;53.164;5.802;2023-04-25T10:45:51;101639.78;;;5.34;100.00
52535;BME280;38443;53.164;5.802;2023-04-25T10:48:27;101643.25;;;5.24;100.00
52535;BME280;38443;53.164;5.802;2023-04-25T10:51:16;101641.41;;;5.15;100.00
52535;BME280;38443;53.164;5.802;2023-04-25T10:56:20;101625.75;;;5.59;100.00
52535;BME280;38443;53.164;5.802;2023-04-25T10:58:49;101633.81;;;5.92;100.00
52535;BME280;38443;53.164;5.802;2023-04-25T11:01:14;101625.00;;;6.08;100.00
52535;BME280;38443;53.164;5.802;2023-04-25T11:03:41;101623.25;;;6.15;100.00
52535;BME280;38443;53.164;5.802;2023-04-25T11:06:29;101623.25;;;6.30;100.00
52535;BME280;38443;53.164;5.802;2023-04-25T11:09:00;101616.16;;;6.55;100.00
52535;BME280;38443;53.164;5.802;2023-04-25T11:11:26;101625.03;;;6.84;100.00
52535;BME280;38443;53.164;5.802;2023-04-25T11:13:52;101626.78;;;7.02;100.00
52535;BME280;38443;53.164;5.802;2023-04-25T11:16:17;101621.41;;;7.20;100.00
52535;BME280;38443;53.164;5.802;2023-04-25T11:18:43;101619.63;;;7.24;100.00
52535;BME280;38443;53.164;5.802;2023-04-25T11:21:09;101624.00;;;7.48;100.00
52535;BME280;38443;53.164;5.802;2023-04-25T11:23:34;101608.75;;;7.76;100.00
52535;BME280;38443;53.164;5.802;2023-04-25T11:26:00;101613.09;;;7.94;100.00
52535;BME280;38443;53.164;5.802;2023-04-25T11:28:26;101617.38;;;8.13;100.00
52535;BME280;38443;53.164;5.802;2023-04-25T11:30:51;101611.97;;;8.27;100.00
52535;BME280;38443;53.164;5.802;2023-04-25T11:33:17;101613.69;;;8.42;100.00
52535;BME280;38443;53.164;5.802;2023-04-25T11:35:43;101616.50;;;8.13;100.00
52535;BME280;38443;53.164;5.802;2023-04-25T11:38:08;101623.78;;;7.85;100.00
52535;BME280;38443;53.164;5.802;2023-04-25T11:40:35;101623.88;;;7.71;100.00
52535;BME280;38443;53.164;5.802;2023-04-25T11:43:00;101637.94;;;8.01;100.00
52535;BME280;38443;53.164;5.802;2023-04-25T11:45:26;101639.75;;;7.89;100.00
52535;BME280;38443;53.164;5.802;2023-04-25T11:47:52;101639.81;;;7.75;100.00
52535;BME280;38443;53.164;5.802;2023-04-25T11:50:17;101639.00;;;7.64;100.00
52535;BME280;38443;53.164;5.802;2023-04-25T11:52:44;101635.22;;;8.07;100.00
52535;BME280;38443;53.164;5.802;2023-04-25T11:55:15;101635.03;;;8.34;100.00
52535;BME280;38443;53.164;5.802;2023-04-25T11:57:42;101633.13;;;8.52;100.00
52535;BME280;38443;53.164;5.802;2023-04-25T12:00:17;101640.97;;;8.76;100.00
52535;BME280;38443;53.164;5.802;2023-04-25T12:02:51;101634.66;;;8.84;100.00
52535;BME280;38443;53.164;5.802;2023-04-25T12:05:16;101629.09;;;9.04;100.00
52535;BME280;38443;53.164;5.802;2023-04-25T12:07:42;101639.19;;;8.74;100.00
52535;BME280;38443;53.164;5.802;2023-04-25T12:10:12;101653.72;;;8.31;100.00
52535;BME280;38443;53.164;5.802;2023-04-25T12:12:41;101654.81;;;8.03;100.00
52535;BME280;38443;53.164;5.802;2023-04-25T12:15:14;101655.84;;;7.72;100.00
52535;BME280;38443;53.164;5.802;2023-04-25T12:17:41;101644.16;;;7.98;100.00
52535;BME280;38443;53.164;5.802;2023-04-25T12:20:09;101652.84;;;8.29;100.00
52535;BME280;38443;53.164;5.802;2023-04-25T12:22:35;101656.31;;;8.47;100.00
52535;BME280;38443;53.164;5.802;2023-04-25T12:25:01;101654.38;;;8.67;100.00
52535;BME280;38443;53.164;5.802;2023-04-25T12:27:30;101656.06;;;8.79;100.00
52535;BME280;38443;53.164;5.802;2023-04-25T12:29:57;101657.84;;;8.80;100.00
52535;BME280;38443;53.164;5.802;2023-04-25T12:32:23;101648.16;;;8.68;95.02
52535;BME280;38443;53.164;5.802;2023-04-25T12:34:48;101654.38;;;8.69;87.75
52535;BME280;38443;53.164;5.802;2023-04-25T12:37:14;101647.09;;;8.86;100.00
52535;BME280;38443;53.164;5.802;2023-04-25T12:39:39;101657.47;;;9.17;100.00
52535;BME280;38443;53.164;5.802;2023-04-25T12:42:04;101658.47;;;9.04;100.00
52535;BME280;38443;53.164;5.802;2023-04-25T12:44:30;101673.84;;;8.78;100.00
52535;BME280;38443;53.164;5.802;2023-04-25T12:46:55;101677.56;;;8.62;100.00
52535;BME280;38443;53.164;5.802;2023-04-25T12:49:20;101667.78;;;8.59;100.00
52535;BME280;38443;53.164;5.802;2023-04-25T12:51:46;101672.38;;;8.31;100.00